Time;durP1;ratioP1;P1;durP2;ratioP2;P2;SDS_P1;SDS_P2;PMS_P1;PMS_P2;Temp;Humidity;BMP_temperature;BMP_pressure;BME280_temperature;BME280_humidity;BME280_pressure;Samples;Min_cycle;Max_cycle;Signal;HPM_P1;HPM_P2
2021/10/21 00:01:32;;;;;;;14.97;7.97;;;;;;;6.84;100.00;98685.16;5057331;28;20082;-66
2021/10/21 00:04:17;;;;;;;16.45;8.73;;;;;;;6.83;100.00;98693.97;5057844;28;20071;-69
2021/10/21 00:07:01;;;;;;;17.65;9.15;;;;;;;6.91;100.00;98699.06;5056259;28;20097;-65
2021/10/21 00:09:46;;;;;;;20.20;8.77;;;;;;;7.00;100.00;98694.47;5056297;28;20059;-65
2021/10/21 00:12:32;;;;;;;17.52;8.38;;;;;;;7.08;100.00;98662.69;5058300;28;20089;-65
2021/10/21 00:15:17;;;;;;;17.95;9.20;;;;;;;7.05;100.00;98686.47;5070996;28;20060;-64
2021/10/21 00:18:02;;;;;;;19.58;9.38;;;;;;;7.02;100.00;98670.72;5054194;28;20113;-65
2021/10/21 00:20:47;;;;;;;16.92;9.50;;;;;;;7.01;100.00;98647.91;5039998;28;20051;-66
2021/10/21 00:23:31;;;;;;;23.10;10.75;;;;;;;7.09;100.00;98617.84;5054078;28;20110;-65
2021/10/21 00:26:17;;;;;;;22.48;9.68;;;;;;;7.14;100.00;98623.84;5045692;28;20051;-64
2021/10/21 00:29:02;;;;;;;19.30;9.80;;;;;;;7.13;100.00;98627.41;5070204;28;20051;-64
2021/10/21 00:31:46;;;;;;;20.58;9.70;;;;;;;7.21;100.00;98609.63;5061232;28;20083;-65
2021/10/21 00:34:31;;;;;;;22.15;10.18;;;;;;;7.29;100.00;98601.50;5053902;28;20144;-65
2021/10/21 00:37:16;;;;;;;25.08;10.45;;;;;;;7.28;100.00;98565.50;5070112;28;20056;-64
2021/10/21 00:40:01;;;;;;;27.73;10.05;;;;;;;7.25;100.00;98561.19;5067853;28;20509;-64
2021/10/21 00:42:46;;;;;;;22.42;10.50;;;;;;;7.27;100.00;98577.81;5055067;28;20480;-66
2021/10/21 00:45:33;;;;;;;25.77;10.85;;;;;;;7.35;100.00;98594.31;5051058;28;20149;-65
2021/10/21 00:48:18;;;;;;;25.35;10.48;;;;;;;7.39;100.00;98598.59;5050112;28;20179;-64
2021/10/21 00:51:09;;;;;;;26.10;10.88;;;;;;;7.51;100.00;98598.28;5063119;28;20574;-66
2021/10/21 00:53:54;;;;;;;24.33;10.73;;;;;;;7.58;100.00;98598.97;5053115;28;20060;-66
2021/10/21 00:56:39;;;;;;;26.17;10.48;;;;;;;7.63;100.00;98578.59;5062704;28;20052;-66
2021/10/21 00:59:26;;;;;;;25.52;11.32;;;;;;;7.63;100.00;98583.88;5058538;28;20043;-67
2021/10/21 01:02:12;;;;;;;24.75;10.98;;;;;;;7.70;100.00;98586.31;5065702;28;20138;-66
2021/10/21 01:04:56;;;;;;;25.92;11.13;;;;;;;7.72;100.00;98573.94;5066314;28;20328;-65
2021/10/21 01:07:41;;;;;;;22.35;11.25;;;;;;;7.82;100.00;98579.81;5079217;28;20058;-64
2021/10/21 01:10:26;;;;;;;23.63;11.27;;;;;;;7.90;100.00;98577.84;5030859;28;20098;-65
2021/10/21 01:13:11;;;;;;;32.40;11.57;;;;;;;7.80;100.00;98561.41;5076979;28;20052;-67
2021/10/21 01:16:07;;;;;;;25.40;11.40;;;;;;;8.00;100.00;98553.78;5043868;28;20114;-62
2021/10/21 01:18:51;;;;;;;26.47;12.17;;;;;;;8.04;100.00;98557.22;5054192;28;20055;-62
2021/10/21 01:21:36;;;;;;;28.75;11.75;;;;;;;8.08;100.00;98543.84;5059704;28;20283;-66
2021/10/21 01:24:22;;;;;;;23.67;11.50;;;;;;;8.14;100.00;98545.44;5056883;28;20087;-64
2021/10/21 01:27:07;;;;;;;24.33;11.98;;;;;;;8.11;100.00;98522.66;5055341;28;20071;-65
2021/10/21 01:29:51;;;;;;;26.77;11.55;;;;;;;8.23;100.00;98532.88;5058095;28;20071;-63
2021/10/21 01:32:36;;;;;;;22.35;10.77;;;;;;;8.16;100.00;98525.16;5054140;28;20079;-64
2021/10/21 01:35:21;;;;;;;26.90;11.70;;;;;;;8.22;100.00;98512.66;5056924;28;20060;-65
2021/10/21 01:38:06;;;;;;;17.73;9.18;;;;;;;8.18;100.00;98518.94;5052504;28;20055;-64
2021/10/21 01:40:51;;;;;;;25.90;10.93;;;;;;;8.30;100.00;98523.88;5061745;28;20059;-65
2021/10/21 01:43:44;;;;;;;25.23;11.55;;;;;;;8.41;100.00;98532.31;5045689;28;20055;-65
2021/10/21 01:46:29;;;;;;;19.45;10.63;;;;;;;8.34;100.00;98538.69;5051552;28;20139;-64
2021/10/21 01:49:13;;;;;;;24.05;10.65;;;;;;;8.43;100.00;98516.44;5067331;28;20069;-62
2021/10/21 01:51:57;;;;;;;23.23;11.15;;;;;;;8.50;100.00;98510.03;5062002;28;20797;-65
2021/10/21 01:54:42;;;;;;;22.98;10.90;;;;;;;8.56;100.00;98504.56;5049923;28;20048;-64
2021/10/21 01:57:26;;;;;;;21.23;11.43;;;;;;;8.66;100.00;98503.34;5060999;28;20054;-63
2021/10/21 02:00:14;;;;;;;17.23;9.73;;;;;;;8.67;100.00;98513.00;5062349;28;20416;-67
2021/10/21 02:02:59;;;;;;;23.02;10.05;;;;;;;8.75;100.00;98518.91;5050534;28;20055;-65
2021/10/21 02:05:43;;;;;;;19.23;10.43;;;;;;;8.71;100.00;98515.47;5071476;28;20738;-64
2021/10/21 02:08:28;;;;;;;23.98;10.57;;;;;;;8.85;100.00;98492.13;5062097;28;20432;-64
2021/10/21 02:11:12;;;;;;;20.98;10.27;;;;;;;8.82;100.00;98494.84;5058856;28;20774;-66
2021/10/21 02:13:56;;;;;;;22.92;11.05;;;;;;;8.84;100.00;98492.16;5054692;28;20107;-64
2021/10/21 02:16:41;;;;;;;18.52;10.00;;;;;;;8.81;100.00;98482.56;5052864;28;20051;-61
2021/10/21 02:19:25;;;;;;;21.92;10.55;;;;;;;8.82;100.00;98473.72;5058291;28;20067;-66
2021/10/21 02:22:10;;;;;;;24.10;10.70;;;;;;;8.84;100.00;98493.03;5049380;28;20126;-76
2021/10/21 02:24:54;;;;;;;23.40;10.68;;;;;;;8.75;100.00;98495.13;5037160;28;20055;-64
2021/10/21 02:27:40;;;;;;;22.35;11.80;;;;;;;8.84;100.00;98471.91;5069008;28;20056;-64
2021/10/21 02:30:25;;;;;;;24.92;12.15;;;;;;;8.92;100.00;98464.56;5036508;28;20122;-66
2021/10/21 02:33:09;;;;;;;23.73;11.57;;;;;;;8.97;100.00;98481.13;5057888;28;20128;-71
2021/10/21 02:35:54;;;;;;;23.10;10.70;;;;;;;9.04;100.00;98490.59;5062199;28;20064;-64
2021/10/21 02:38:38;;;;;;;22.10;11.18;;;;;;;9.08;100.00;98480.75;5059035;28;20047;-64
2021/10/21 02:41:24;;;;;;;23.40;11.40;;;;;;;9.05;100.00;98483.50;5068255;28;20784;-64
2021/10/21 02:44:10;;;;;;;21.13;11.70;;;;;;;9.11;100.00;98475.38;5057990;28;20055;-62
2021/10/21 02:46:55;;;;;;;21.70;11.68;;;;;;;9.12;100.00;98472.69;5075830;28;20527;-61
2021/10/21 02:49:39;;;;;;;24.42;11.95;;;;;;;9.25;100.00;98467.81;5064528;28;20072;-66
2021/10/21 02:52:24;;;;;;;24.15;11.82;;;;;;;9.37;100.00;98460.31;5067317;28;20451;-64
2021/10/21 02:55:09;;;;;;;28.88;13.38;;;;;;;9.25;100.00;98441.34;5067139;28;20591;-63
2021/10/21 02:57:54;;;;;;;25.90;12.35;;;;;;;9.32;100.00;98442.88;5065915;28;20047;-69
2021/10/21 03:00:40;;;;;;;26.50;12.60;;;;;;;9.36;100.00;98444.50;5066571;28;20051;-65
2021/10/21 03:03:24;;;;;;;23.58;13.13;;;;;;;9.35;100.00;98427.75;5054309;28;20578;-64
2021/10/21 03:06:08;;;;;;;26.77;13.15;;;;;;;9.42;100.00;98428.41;5066506;28;20131;-59
2021/10/21 03:08:53;;;;;;;27.08;14.07;;;;;;;9.49;100.00;98429.88;5066510;28;20135;-64
2021/10/21 03:11:38;;;;;;;29.40;13.67;;;;;;;9.51;100.00;98428.91;5063073;28;20043;-62
2021/10/21 03:14:22;;;;;;;25.90;12.93;;;;;;;9.62;100.00;98414.44;5062935;28;20293;-63
2021/10/21 03:17:07;;;;;;;26.38;13.20;;;;;;;9.54;100.00;98410.28;5061303;28;20086;-70
2021/10/21 03:19:52;;;;;;;32.35;14.98;;;;;;;9.52;100.00;98412.13;5046920;28;20103;-61
2021/10/21 03:22:38;;;;;;;30.15;15.02;;;;;;;9.60;100.00;98414.47;5058710;28;20051;-64
2021/10/21 03:25:23;;;;;;;27.27;14.77;;;;;;;9.65;100.00;98401.09;5060643;28;20174;-64
2021/10/21 03:28:07;;;;;;;30.60;14.85;;;;;;;9.71;100.00;98392.91;5066522;28;20540;-64
2021/10/21 03:30:52;;;;;;;26.75;14.57;;;;;;;9.59;100.00;98391.59;5066215;28;20101;-64
2021/10/21 03:33:36;;;;;;;30.55;15.02;;;;;;;9.64;100.00;98378.19;5051223;28;20044;-64
2021/10/21 03:36:23;;;;;;;;;;;;;;;9.74;100.00;98368.97;5065537;28;20140;-64
2021/10/21 03:39:07;;;;;;;28.98;14.73;;;;;;;9.76;100.00;98370.63;5059081;28;19931;-63
2021/10/21 03:41:51;;;;;;;31.73;14.95;;;;;;;9.77;100.00;98369.69;5064225;28;20051;-63
2021/10/21 03:44:36;;;;;;;33.95;15.73;;;;;;;9.89;100.00;98363.91;5052684;28;20067;-64
2021/10/21 03:47:21;;;;;;;34.08;14.75;;;;;;;9.99;100.00;98348.53;5066020;28;20056;-63
2021/10/21 03:50:07;;;;;;;35.08;15.07;;;;;;;9.99;100.00;98357.34;5059850;28;20062;-63
2021/10/21 03:52:51;;;;;;;29.23;14.23;;;;;;;9.94;100.00;98351.38;5062558;28;20186;-65
2021/10/21 03:55:38;;;;;;;25.33;13.35;;;;;;;10.04;100.00;98354.53;5074319;28;20052;-66
2021/10/21 03:58:23;;;;;;;25.80;14.77;;;;;;;10.00;100.00;98368.81;5047259;28;20051;-66
2021/10/21 04:01:08;;;;;;;26.40;14.45;;;;;;;9.92;100.00;98377.03;5055152;28;20135;-64
2021/10/21 04:03:53;;;;;;;31.58;14.55;;;;;;;10.00;100.00;98395.28;5063767;28;20055;-66
2021/10/21 04:06:38;;;;;;;24.73;14.05;;;;;;;10.10;100.00;98372.84;5052785;28;20059;-65
2021/10/21 04:09:23;;;;;;;30.17;14.85;;;;;;;10.11;100.00;98356.88;5061363;28;20106;-63
2021/10/21 04:12:07;;;;;;;26.98;11.82;;;;;;;10.14;100.00;98350.59;5066560;28;20670;-63
2021/10/21 04:14:52;;;;;;;25.23;13.63;;;;;;;10.16;100.00;98360.19;5053608;28;20060;-78
2021/10/21 04:17:37;;;;;;;26.67;13.65;;;;;;;10.20;100.00;98360.97;5050438;28;20078;-62
2021/10/21 04:20:22;;;;;;;26.80;12.82;;;;;;;10.22;100.00;98367.91;5064372;28;20475;-62
2021/10/21 04:23:08;;;;;;;26.67;13.15;;;;;;;10.36;100.00;98351.47;5080551;28;20067;-61
2021/10/21 04:25:52;;;;;;;27.33;13.77;;;;;;;10.29;100.00;98347.31;5052250;28;20098;-64
2021/10/21 04:28:37;;;;;;;25.38;13.20;;;;;;;10.38;100.00;98379.59;5069453;28;20089;-64
2021/10/21 04:31:21;;;;;;;21.77;12.05;;;;;;;10.49;100.00;98361.47;5074923;28;20567;-62
2021/10/21 04:34:05;;;;;;;20.48;12.00;;;;;;;10.50;100.00;98349.94;5066707;28;20043;-72
2021/10/21 04:36:50;;;;;;;21.83;12.15;;;;;;;10.44;100.00;98350.19;5063318;28;20067;-62
2021/10/21 04:39:35;;;;;;;23.67;12.23;;;;;;;10.39;100.00;98352.19;5056302;28;20063;-61
2021/10/21 04:42:19;;;;;;;21.02;12.30;;;;;;;10.48;100.00;98338.53;5065502;28;20052;-65
2021/10/21 04:45:04;;;;;;;22.48;12.02;;;;;;;10.49;100.00;98323.50;5056142;28;20079;-62
2021/10/21 04:47:49;;;;;;;;;;;;;;;10.41;100.00;98353.00;5059792;28;20079;-64
2021/10/21 04:50:36;;;;;;;25.05;12.05;;;;;;;10.44;100.00;98336.94;5064165;28;19936;-65
2021/10/21 04:53:20;;;;;;;21.75;11.75;;;;;;;10.49;100.00;98331.47;5060231;28;20759;-69
2021/10/21 04:56:05;;;;;;;22.80;12.25;;;;;;;10.45;100.00;98337.81;5065441;28;20138;-64
2021/10/21 04:58:50;;;;;;;21.77;12.10;;;;;;;10.50;100.00;98318.16;5037516;28;20052;-63
2021/10/21 05:01:34;;;;;;;;;;;;;;;10.55;100.00;98318.81;5065502;28;20135;-63
2021/10/21 05:04:19;;;;;;;23.25;12.23;;;;;;;10.57;100.00;98321.41;5049551;28;19939;-63
2021/10/21 05:07:04;;;;;;;26.25;11.18;;;;;;;10.56;100.00;98307.25;5055322;28;20059;-63
2021/10/21 05:09:48;;;;;;;19.77;11.52;;;;;;;10.54;100.00;98337.41;5062189;28;20421;-63
2021/10/21 05:12:33;;;;;;;19.55;11.70;;;;;;;10.63;100.00;98331.72;5065712;28;20415;-65
2021/10/21 05:15:18;;;;;;;24.10;11.75;;;;;;;10.73;100.00;98349.84;5051490;28;20118;-63
2021/10/21 05:18:02;;;;;;;20.48;11.25;;;;;;;10.72;100.00;98344.59;5054833;28;20056;-72
2021/10/21 05:20:47;;;;;;;24.70;12.00;;;;;;;10.77;100.00;98346.13;5046176;28;20523;-63
2021/10/21 05:23:31;;;;;;;22.90;12.48;;;;;;;10.80;100.00;98340.66;5062047;28;20136;-62
2021/10/21 05:26:16;;;;;;;23.60;11.45;;;;;;;10.89;100.00;98327.03;5065263;28;20078;-64
2021/10/21 05:29:00;;;;;;;23.60;12.15;;;;;;;10.84;100.00;98315.75;5065535;28;20067;-61
2021/10/21 05:31:46;;;;;;;18.85;10.60;;;;;;;10.86;100.00;98313.91;5052500;28;20048;-63
2021/10/21 05:34:31;;;;;;;22.58;11.30;;;;;;;10.77;100.00;98311.66;5045536;28;20071;-62
2021/10/21 05:37:15;;;;;;;24.70;11.43;;;;;;;10.82;100.00;98311.44;5062007;28;20448;-68
2021/10/21 05:40:00;;;;;;;22.13;11.27;;;;;;;10.75;100.00;98307.31;5051451;28;20134;-63
2021/10/21 05:42:48;;;;;;;19.65;11.20;;;;;;;10.79;100.00;98301.81;5069924;28;20105;-60
2021/10/21 05:45:32;;;;;;;21.33;10.80;;;;;;;10.85;100.00;98298.06;5065112;28;20165;-63
2021/10/21 05:48:18;;;;;;;22.30;11.48;;;;;;;10.76;100.00;98309.06;5048403;28;20144;-64
2021/10/21 05:51:02;;;;;;;20.63;11.57;;;;;;;10.79;100.00;98319.50;5065928;28;20075;-62
2021/10/21 05:53:49;;;;;;;21.67;10.90;;;;;;;10.88;100.00;98343.00;5059214;28;20166;-64
2021/10/21 05:56:34;;;;;;;16.45;10.60;;;;;;;10.92;100.00;98328.66;5054766;28;20068;-64
2021/10/21 05:59:18;;;;;;;23.60;11.38;;;;;;;10.94;100.00;98340.06;5063995;28;20058;-67
2021/10/21 06:02:03;;;;;;;21.33;11.90;;;;;;;10.97;100.00;98327.53;5050135;28;20059;-64
2021/10/21 06:04:47;;;;;;;24.48;11.95;;;;;;;11.11;100.00;98335.72;5050533;28;20532;-64
2021/10/21 06:07:33;;;;;;;21.05;11.63;;;;;;;11.04;100.00;98331.63;5046677;28;20056;-65
2021/10/21 06:10:17;;;;;;;25.65;11.43;;;;;;;11.13;100.00;98327.72;5059207;28;20139;-63
2021/10/21 06:13:04;;;;;;;;;;;;;;;11.13;100.00;98335.66;5063897;28;20055;-67
2021/10/21 06:15:49;;;;;;;18.85;11.65;;;;;;;11.11;100.00;98337.53;5071872;28;20017;-62
2021/10/21 06:18:36;;;;;;;21.55;11.48;;;;;;;11.13;100.00;98333.00;5052148;28;20064;-64
2021/10/21 06:21:23;;;;;;;20.25;12.38;;;;;;;11.16;100.00;98340.84;5040588;28;20051;-64
2021/10/21 06:24:08;;;;;;;23.48;11.88;;;;;;;11.19;100.00;98338.06;5064309;28;20052;-64
2021/10/21 06:26:54;;;;;;;23.02;12.70;;;;;;;11.18;100.00;98315.97;5061787;28;20052;-62
2021/10/21 06:29:40;;;;;;;27.30;12.90;;;;;;;11.19;100.00;98300.91;5075169;28;20047;-67
2021/10/21 06:32:25;;;;;;;21.50;12.85;;;;;;;11.11;100.00;98295.09;5070233;28;20051;-64
2021/10/21 06:35:14;;;;;;;21.40;12.25;;;;;;;11.27;100.00;98291.66;5048288;28;20098;-63
2021/10/21 06:37:59;;;;;;;18.88;11.27;;;;;;;11.16;100.00;98291.28;5064804;28;20087;-64
2021/10/21 06:40:44;;;;;;;17.63;11.23;;;;;;;11.12;100.00;98287.03;5047211;28;20093;-66
2021/10/21 06:43:29;;;;;;;20.25;12.20;;;;;;;11.22;100.00;98290.13;5042610;28;20082;-65
2021/10/21 06:46:14;;;;;;;20.20;11.68;;;;;;;11.38;100.00;98285.84;5059451;28;20047;-68
2021/10/21 06:48:59;;;;;;;19.02;11.95;;;;;;;11.38;100.00;98288.50;5063367;28;20614;-64
2021/10/21 06:51:44;;;;;;;18.83;11.32;;;;;;;11.41;100.00;98268.00;5066672;28;20131;-64
2021/10/21 06:54:29;;;;;;;16.60;10.95;;;;;;;11.50;100.00;98287.91;5065921;28;20051;-62
2021/10/21 06:57:14;;;;;;;19.58;11.30;;;;;;;11.41;100.00;98272.44;5066308;28;20124;-65
2021/10/21 07:00:00;;;;;;;16.10;10.63;;;;;;;11.49;100.00;98283.56;5067718;28;20639;-62
2021/10/21 07:02:46;;;;;;;18.05;11.23;;;;;;;11.48;100.00;98309.22;5052538;28;20139;-64
2021/10/21 07:05:36;;;;;;;16.90;9.98;;;;;;;11.50;100.00;98294.09;5067796;28;20150;-65
2021/10/21 07:08:24;;;;;;;21.95;10.85;;;;;;;11.60;100.00;98284.81;5067129;28;20052;-64
2021/10/21 07:11:09;;;;;;;18.40;10.70;;;;;;;11.64;100.00;98290.81;5073636;28;20093;-65
2021/10/21 07:13:54;;;;;;;;;;;;;;;11.65;100.00;98279.28;5082813;28;20063;-66
2021/10/21 07:16:38;;;;;;;20.05;10.95;;;;;;;11.65;100.00;98242.97;5067440;28;19966;-67
2021/10/21 07:19:24;;;;;;;17.35;10.95;;;;;;;11.72;100.00;98220.50;5059286;28;20055;-66
2021/10/21 07:22:09;;;;;;;20.17;11.48;;;;;;;11.88;100.00;98233.88;5050659;28;20044;-64
2021/10/21 07:24:53;;;;;;;16.67;10.80;;;;;;;12.03;100.00;98265.00;5055619;28;20531;-63
2021/10/21 07:27:40;;;;;;;19.03;11.33;;;;;;;11.91;100.00;98300.13;5062765;28;20079;-67
2021/10/21 07:30:26;;;;;;;17.10;10.63;;;;;;;11.98;100.00;98306.84;5067830;28;20289;-64
2021/10/21 07:33:14;;;;;;;22.15;11.15;;;;;;;11.90;100.00;98293.06;5056342;28;20179;-64
2021/10/21 07:35:58;;;;;;;20.17;11.50;;;;;;;11.96;100.00;98285.69;5056781;28;20561;-67
2021/10/21 07:38:42;;;;;;;17.90;11.60;;;;;;;11.96;100.00;98271.53;5067391;28;20050;-64
2021/10/21 07:41:27;;;;;;;19.27;11.90;;;;;;;12.11;100.00;98287.56;5065040;28;20527;-65
2021/10/21 07:44:13;;;;;;;20.05;10.75;;;;;;;12.06;100.00;98286.94;5038202;28;20487;-69
2021/10/21 07:46:59;;;;;;;;;;;;;;;12.07;100.00;98293.13;5034254;28;20048;-65
2021/10/21 07:49:45;;;;;;;16.55;10.15;;;;;;;12.09;100.00;98296.56;5032850;28;20320;-67
2021/10/21 07:52:29;;;;;;;;;;;;;;;12.12;100.00;98291.97;5065161;28;20069;-66
2021/10/21 07:55:14;;;;;;;18.75;11.07;;;;;;;12.03;100.00;98296.88;5065941;28;20055;-68
2021/10/21 07:57:58;;;;;;;17.23;10.55;;;;;;;11.98;100.00;98293.56;5065598;28;20081;-63
2021/10/21 08:00:43;;;;;;;20.60;11.13;;;;;;;11.98;100.00;98320.13;5065900;28;20127;-66
2021/10/21 08:03:28;;;;;;;18.27;10.52;;;;;;;11.97;100.00;98315.75;5066036;28;20121;-64
2021/10/21 08:06:12;;;;;;;18.33;11.18;;;;;;;12.02;100.00;98327.00;5054115;28;20117;-62
2021/10/21 08:08:58;;;;;;;18.98;11.30;;;;;;;12.00;100.00;98323.59;5051134;28;20073;-63
2021/10/21 08:11:42;;;;;;;16.67;9.98;;;;;;;12.05;100.00;98340.16;5074517;28;20078;-65
2021/10/21 08:14:27;;;;;;;16.65;9.93;;;;;;;12.01;100.00;98323.50;5061190;28;20501;-66
2021/10/21 08:17:12;;;;;;;13.43;9.45;;;;;;;11.96;100.00;98332.63;5052409;28;20149;-63
2021/10/21 08:19:58;;;;;;;14.88;9.50;;;;;;;11.99;100.00;98329.84;5049436;28;20055;-63
2021/10/21 08:22:47;;;;;;;14.65;9.88;;;;;;;11.95;100.00;98333.56;5067943;28;20063;-63
2021/10/21 08:25:32;;;;;;;16.73;9.27;;;;;;;12.04;100.00;98322.50;5035754;28;20150;-62
2021/10/21 08:28:16;;;;;;;16.38;10.18;;;;;;;12.12;100.00;98291.09;5058358;28;20139;-67
2021/10/21 08:31:01;;;;;;;13.90;9.63;;;;;;;12.15;100.00;98309.56;5060080;28;20106;-63
2021/10/21 08:33:46;;;;;;;15.65;9.15;;;;;;;12.15;100.00;98297.09;5063695;28;20042;-67
2021/10/21 08:36:31;;;;;;;14.77;9.35;;;;;;;12.11;100.00;98292.03;5057957;28;20060;-62
2021/10/21 08:39:16;;;;;;;20.80;10.27;;;;;;;12.21;100.00;98294.16;5064757;28;20047;-66
2021/10/21 08:42:00;;;;;;;16.48;9.57;;;;;;;12.28;100.00;98295.59;5058459;28;20071;-67
2021/10/21 08:44:46;;;;;;;12.20;9.23;;;;;;;12.31;100.00;98300.72;5066130;28;20048;-68
2021/10/21 08:47:32;;;;;;;18.13;9.20;;;;;;;12.30;100.00;98314.13;5062640;28;20118;-64
2021/10/21 08:50:18;;;;;;;17.95;9.90;;;;;;;12.42;100.00;98305.53;5035497;28;20106;-63
2021/10/21 08:53:04;;;;;;;16.63;9.15;;;;;;;12.39;100.00;98309.16;5062227;28;20064;-64
2021/10/21 08:55:56;;;;;;;14.90;9.07;;;;;;;12.35;100.00;98317.41;5035969;28;20589;-64
2021/10/21 08:58:40;;;;;;;16.52;10.85;;;;;;;12.43;100.00;98323.19;5069915;28;20079;-71
2021/10/21 09:10:05;;;;;;;11.65;8.23;;;;;;;12.85;100.00;98273.09;5051487;28;20523;-63
2021/10/21 09:12:50;;;;;;;14.93;8.38;;;;;;;12.94;100.00;98284.09;5062043;28;20090;-63
2021/10/21 09:15:34;;;;;;;;;;;;;;;12.89;100.00;98279.97;5048438;28;20086;-63
2021/10/21 09:18:19;;;;;;;12.23;9.00;;;;;;;12.93;100.00;98262.91;5058569;28;20519;-67
2021/10/21 09:21:03;;;;;;;11.63;8.43;;;;;;;13.03;100.00;98269.50;5057904;28;20080;-66
2021/10/21 09:23:47;;;;;;;16.90;9.10;;;;;;;13.01;100.00;98282.00;5057146;28;20056;-66
2021/10/21 09:26:32;;;;;;;11.77;7.80;;;;;;;13.17;100.00;98275.78;5052389;28;20136;-66
2021/10/21 09:29:24;;;;;;;13.30;9.07;;;;;;;13.26;100.00;98290.41;5054462;28;20083;-69
2021/10/21 09:32:13;;;;;;;13.13;8.02;;;;;;;13.05;100.00;98318.16;5060572;28;20071;-67
2021/10/21 09:35:04;;;;;;;16.77;8.88;;;;;;;13.06;100.00;98311.91;5068055;28;20920;-67
2021/10/21 09:37:53;;;;;;;12.98;8.48;;;;;;;12.99;100.00;98303.41;5055275;28;20098;-69
2021/10/21 09:40:40;;;;;;;13.00;8.95;;;;;;;13.02;100.00;98324.50;5068540;28;20554;-64
2021/10/21 09:43:32;;;;;;;15.40;8.88;;;;;;;13.09;100.00;98320.59;5069476;28;20098;-63
2021/10/21 09:46:43;;;;;;;13.38;8.80;;;;;;;13.14;100.00;98318.53;5052870;28;20527;-63
2021/10/21 09:49:36;;;;;;;13.30;8.48;;;;;;;13.06;100.00;98309.25;5055264;28;20060;-66
2021/10/21 09:52:23;;;;;;;14.02;8.95;;;;;;;13.17;100.00;98320.16;5046225;28;20111;-65
2021/10/21 09:55:10;;;;;;;12.38;8.85;;;;;;;13.21;100.00;98308.41;5029519;28;20094;-64
2021/10/21 09:58:04;;;;;;;14.05;8.88;;;;;;;13.34;100.00;98310.34;5063857;28;20477;-58
2021/10/21 10:00:50;;;;;;;14.75;8.88;;;;;;;13.34;100.00;98301.50;5064177;28;20087;-63
2021/10/21 10:03:37;;;;;;;19.65;8.48;;;;;;;13.36;100.00;98300.47;5051511;28;20459;-63
2021/10/21 10:06:21;;;;;;;14.23;8.35;;;;;;;13.42;100.00;98291.31;5060917;28;20043;-62
2021/10/21 10:09:05;;;;;;;16.60;7.95;;;;;;;13.48;100.00;98298.94;5070107;28;20824;-67
2021/10/21 10:11:50;;;;;;;13.88;8.10;;;;;;;13.55;100.00;98298.53;5052971;28;20044;-64
2021/10/21 10:14:45;;;;;;;12.38;7.85;;;;;;;13.65;100.00;98310.38;5065252;28;20208;-63
2021/10/21 10:17:30;;;;;;;11.73;8.10;;;;;;;13.75;100.00;98306.28;5029400;28;20098;-64
2021/10/21 10:20:22;;;;;;;;;;;;;;;13.94;100.00;98309.59;5046216;28;20059;-68
2021/10/21 10:23:12;;;;;;;16.77;9.25;;;;;;;14.05;100.00;98335.66;5069858;28;20445;-65
2021/10/21 10:25:58;;;;;;;15.05;8.40;;;;;;;14.27;100.00;98320.19;5049790;28;20094;-68
2021/10/21 10:29:00;;;;;;;13.10;8.27;;;;;;;14.36;100.00;98334.81;5082690;28;20047;-66
2021/10/21 10:31:47;;;;;;;12.45;8.10;;;;;;;14.50;100.00;98330.38;5064308;28;20520;-70
2021/10/21 10:34:32;;;;;;;14.70;7.90;;;;;;;14.47;100.00;98329.72;5066105;28;20071;-65
2021/10/21 10:37:16;;;;;;;12.90;7.97;;;;;;;14.35;100.00;98311.75;5067793;28;20051;-66
2021/10/21 10:40:03;;;;;;;14.13;7.55;;;;;;;14.30;100.00;98332.47;5044363;28;20047;-60
2021/10/21 10:42:48;;;;;;;12.68;7.57;;;;;;;14.32;100.00;98323.44;5057408;28;20170;-64
2021/10/21 10:45:43;;;;;;;12.88;7.38;;;;;;;14.28;100.00;98323.72;5065601;28;20714;-65
2021/10/21 10:48:48;;;;;;;13.32;7.57;;;;;;;14.30;100.00;98314.69;5059976;28;20054;-65
2021/10/21 10:51:57;;;;;;;10.95;7.45;;;;;;;14.45;100.00;98323.59;5070493;28;20048;-66
2021/10/21 10:54:51;;;;;;;10.85;7.22;;;;;;;14.39;100.00;98305.31;5058897;28;20055;-62
2021/10/21 10:57:45;;;;;;;10.88;7.03;;;;;;;14.52;100.00;98307.13;5055678;28;20110;-63
2021/10/21 11:00:51;;;;;;;9.52;6.32;;;;;;;14.60;100.00;98310.19;5075218;28;20475;-64
2021/10/21 11:03:41;;;;;;;11.15;7.18;;;;;;;14.66;100.00;98282.31;5070712;28;20078;-63
2021/10/21 11:06:26;;;;;;;9.05;6.35;;;;;;;14.82;100.00;98299.97;5060250;28;20060;-62
2021/10/21 11:09:23;;;;;;;14.20;7.20;;;;;;;15.06;100.00;98293.16;5043165;28;20071;-62
2021/10/21 11:12:11;;;;;;;11.18;6.78;;;;;;;15.11;100.00;98301.72;5044260;28;20132;-64
2021/10/21 11:14:57;;;;;;;13.00;7.18;;;;;;;15.66;100.00;98305.38;5050464;28;20101;-64
2021/10/21 11:17:43;;;;;;;10.88;6.10;;;;;;;16.16;100.00;98302.13;5061520;28;20074;-65
2021/10/21 11:20:29;;;;;;;11.75;6.32;;;;;;;16.55;100.00;98296.84;5047678;28;20091;-66
2021/10/21 11:23:26;;;;;;;9.00;5.82;;;;;;;16.30;100.00;98302.91;5055365;28;20059;-66
2021/10/21 11:26:23;;;;;;;12.98;6.93;;;;;;;15.86;100.00;98306.78;5075163;28;20060;-64
2021/10/21 11:29:09;;;;;;;10.65;6.90;;;;;;;15.65;100.00;98321.50;5071824;28;20059;-65
2021/10/21 11:31:55;;;;;;;9.35;6.95;;;;;;;15.42;100.00;98322.13;5065986;28;20132;-62
2021/10/21 11:34:40;;;;;;;11.95;7.22;;;;;;;15.20;100.00;98327.00;5055831;28;20183;-66
2021/10/21 11:37:46;;;;;;;11.88;7.43;;;;;;;15.28;100.00;98322.06;5057115;28;20072;-61
2021/10/21 11:40:39;;;;;;;12.15;7.55;;;;;;;15.23;100.00;98318.81;5055361;28;20064;-66
2021/10/21 11:43:26;;;;;;;12.88;7.43;;;;;;;15.18;100.00;98321.78;5056112;28;20083;-65
2021/10/21 11:46:13;;;;;;;11.63;7.18;;;;;;;15.23;100.00;98326.84;5069211;28;20095;-72
2021/10/21 11:48:58;;;;;;;11.48;6.88;;;;;;;15.18;100.00;98336.91;5074167;28;20048;-69
2021/10/21 11:51:43;;;;;;;;;;;;;;;15.14;100.00;98336.25;5053976;28;20075;-66
2021/10/21 11:54:28;;;;;;;11.68;7.45;;;;;;;15.11;100.00;98346.28;5058377;28;20058;-63
2021/10/21 11:57:15;;;;;;;12.80;6.75;;;;;;;15.08;100.00;98347.31;5070332;28;20051;-63
2021/10/21 12:00:16;;;;;;;13.68;7.70;;;;;;;15.06;100.00;98348.34;5057730;28;20055;-70
2021/10/21 12:03:01;;;;;;;11.98;6.80;;;;;;;15.09;100.00;98359.72;5049751;28;20043;-63
2021/10/21 12:05:51;;;;;;;14.45;7.38;;;;;;;15.12;100.00;98353.31;5060234;28;20056;-62
2021/10/21 12:08:37;;;;;;;11.68;7.22;;;;;;;15.11;100.00;98367.63;5068907;28;20136;-74
2021/10/21 12:11:23;;;;;;;9.85;6.88;;;;;;;15.07;100.00;98360.75;5055318;28;20051;-69
2021/10/21 12:14:08;;;;;;;11.15;7.57;;;;;;;15.09;100.00;98364.19;5053055;28;20459;-67
2021/10/21 12:16:54;;;;;;;16.45;9.07;;;;;;;15.07;100.00;98353.59;5065948;28;20596;-63
2021/10/21 12:19:43;;;;;;;16.73;9.85;;;;;;;15.06;100.00;98351.88;5065608;28;20063;-63
2021/10/21 12:22:30;;;;;;;15.70;10.00;;;;;;;15.04;100.00;98350.25;5044990;28;20122;-71
2021/10/21 12:25:31;;;;;;;12.27;7.47;;;;;;;15.12;100.00;98350.66;5047369;28;20459;-65
2021/10/21 12:28:17;;;;;;;12.27;6.72;;;;;;;15.10;100.00;98358.75;5061810;28;20048;-65
2021/10/21 12:31:20;;;;;;;11.38;7.15;;;;;;;15.22;100.00;98349.13;5066131;28;20128;-68
2021/10/21 12:34:13;;;;;;;9.23;6.10;;;;;;;15.19;100.00;98360.84;5055668;28;20047;-64
2021/10/21 12:37:07;;;;;;;13.57;6.65;;;;;;;15.16;100.00;98358.41;5061783;28;20059;-64
2021/10/21 12:40:09;;;;;;;12.25;6.63;;;;;;;15.31;100.00;98357.44;5074356;28;20202;-65
2021/10/21 12:43:12;;;;;;;14.25;6.50;;;;;;;15.25;100.00;98354.28;5064173;28;20113;-65
2021/10/21 12:46:04;;;;;;;11.20;6.65;;;;;;;15.09;100.00;98346.38;5034827;28;20145;-65
2021/10/21 12:49:08;;;;;;;15.68;7.38;;;;;;;15.11;100.00;98343.59;5064671;28;20197;-66
2021/10/21 12:52:05;;;;;;;12.32;6.70;;;;;;;15.17;100.00;98349.44;5052579;28;20110;-66
2021/10/21 12:55:05;;;;;;;14.40;7.18;;;;;;;15.14;100.00;98352.28;5061348;28;20059;-65